Time;durP1;ratioP1;P1;durP2;ratioP2;P2;SDS_P1;SDS_P2;PMS_P1;PMS_P2;Temp;Humidity;BMP_temperature;BMP_pressure;BME280_temperature;BME280_humidity;BME280_pressure;Samples;Min_cycle;Max_cycle;Signal;HPM_P1;HPM_P2
2024/01/14 00:00:15;;;;;;;14.53;9.03;;;2.70;99.90;;;;;;4740741;30;20205;-87
2024/01/14 00:02:40;;;;;;;14.77;9.10;;;2.60;99.90;;;;;;4749228;30;20200;-87
2024/01/14 00:05:07;;;;;;;15.57;9.33;;;2.60;99.90;;;;;;4753360;30;20199;-87
2024/01/14 00:07:32;;;;;;;12.17;8.43;;;2.60;99.90;;;;;;4757531;30;20203;-90
2024/01/14 00:09:59;;;;;;;14.30;8.40;;;2.60;99.90;;;;;;4770978;30;20204;-87
2024/01/14 00:12:25;;;;;;;18.33;9.53;;;2.70;99.90;;;;;;4771689;30;20196;-88
2024/01/14 00:14:51;;;;;;;17.40;9.07;;;2.60;99.90;;;;;;4755963;30;20199;-88
2024/01/14 00:17:17;;;;;;;20.87;10.37;;;2.70;99.90;;;;;;4755746;30;20229;-89
2024/01/14 00:19:43;;;;;;;21.53;10.03;;;2.70;99.90;;;;;;4747893;30;20621;-86
2024/01/14 00:22:09;;;;;;;23.77;11.03;;;2.70;99.90;;;;;;4755137;30;20208;-89
2024/01/14 00:24:35;;;;;;;20.73;10.50;;;2.70;99.90;;;;;;4751672;30;20207;-88
2024/01/14 00:27:00;;;;;;;20.80;11.07;;;2.70;99.90;;;;;;4737395;30;20225;-90
2024/01/14 00:29:36;;;;;;;21.67;11.07;;;2.90;99.90;;;;;;4755508;30;20300;-89
2024/01/14 00:32:02;;;;;;;25.13;12.27;;;3.00;99.90;;;;;;4755560;30;20766;-89
2024/01/14 00:34:28;;;;;;;19.53;11.23;;;3.00;99.90;;;;;;4753572;30;20215;-88
2024/01/14 00:36:53;;;;;;;20.70;10.47;;;3.10;99.90;;;;;;4755401;30;20200;-91
2024/01/14 00:39:20;;;;;;;23.77;11.87;;;3.00;99.90;;;;;;4755519;30;20656;-90
2024/01/14 00:41:47;;;;;;;20.60;9.97;;;3.00;99.90;;;;;;4755776;30;20223;-88
2024/01/14 00:44:12;;;;;;;20.97;10.80;;;3.10;99.90;;;;;;4755771;30;20539;-88
2024/01/14 00:46:38;;;;;;;21.40;11.13;;;3.10;99.90;;;;;;4758978;30;20195;-86
2024/01/14 00:49:04;;;;;;;22.97;10.27;;;3.10;99.90;;;;;;4758379;30;20196;-88
2024/01/14 00:51:38;;;;;;;20.73;10.00;;;3.10;99.90;;;;;;4758646;30;20207;-88
2024/01/14 00:54:04;;;;;;;16.93;9.53;;;3.20;99.90;;;;;;4758821;30;20707;-89
2024/01/14 00:56:30;;;;;;;19.43;9.07;;;3.20;99.90;;;;;;4751239;30;20203;-90
2024/01/14 00:58:55;;;;;;;17.10;9.17;;;3.20;99.90;;;;;;4758403;30;20231;-88
2024/01/14 01:01:22;;;;;;;18.47;9.73;;;3.20;99.90;;;;;;4774156;30;20204;-89
2024/01/14 01:03:48;;;;;;;16.70;9.30;;;3.20;99.90;;;;;;4756483;30;20666;-86
2024/01/14 01:06:13;;;;;;;15.07;9.20;;;3.10;99.90;;;;;;4774551;30;20188;-88
2024/01/14 01:08:39;;;;;;;16.90;8.47;;;3.10;99.90;;;;;;4754655;30;20654;-87
2024/01/14 01:11:06;;;;;;;14.60;8.10;;;3.10;99.90;;;;;;4755011;30;20196;-88
2024/01/14 01:13:32;;;;;;;13.90;8.13;;;3.10;99.90;;;;;;4744092;30;20231;-87
2024/01/14 01:15:57;;;;;;;15.43;8.47;;;3.10;99.90;;;;;;4758548;30;20230;-89
2024/01/14 01:18:23;;;;;;;15.37;8.03;;;3.10;99.90;;;;;;4758399;30;20239;-90
2024/01/14 01:20:51;;;;;;;15.30;8.57;;;3.20;99.90;;;;;;4758246;30;20684;-88
2024/01/14 01:23:17;;;;;;;13.43;7.67;;;3.20;99.90;;;;;;4743711;30;20192;-88
2024/01/14 01:25:42;;;;;;;16.23;8.03;;;3.30;99.90;;;;;;4758170;30;20607;-88
2024/01/14 01:28:09;;;;;;;18.23;8.77;;;3.40;99.90;;;;;;4750696;30;20192;-86
2024/01/14 01:30:39;;;;;;;10.53;5.93;;;3.40;99.90;;;;;;4758000;30;20625;-87
2024/01/14 01:33:05;;;;;;;8.13;5.33;;;3.20;99.90;;;;;;4756833;30;20199;-88
2024/01/14 01:35:30;;;;;;;10.80;4.87;;;3.00;99.90;;;;;;4773744;30;20192;-89
2024/01/14 01:37:56;;;;;;;8.27;4.43;;;2.80;99.90;;;;;;4757545;30;20314;-88
2024/01/14 01:40:29;;;;;;;7.93;3.63;;;2.80;99.90;;;;;;4757703;30;20207;-88
2024/01/14 01:42:55;;;;;;;7.87;3.30;;;2.70;99.90;;;;;;4758360;30;20200;-89
2024/01/14 01:45:21;;;;;;;6.93;3.40;;;2.70;99.90;;;;;;4758235;30;20249;-88
2024/01/14 01:47:47;;;;;;;6.90;2.30;;;2.60;99.90;;;;;;4757859;30;20204;-90
2024/01/14 01:50:13;;;;;;;11.57;3.30;;;2.60;99.90;;;;;;4757755;30;20196;-89
2024/01/14 01:52:39;;;;;;;6.43;2.23;;;2.50;99.90;;;;;;4757937;30;20203;-89
2024/01/14 01:55:05;;;;;;;8.60;2.30;;;2.50;99.90;;;;;;4758229;30;20204;-88
2024/01/14 01:57:33;;;;;;;8.00;1.87;;;2.50;99.90;;;;;;4756809;30;20283;-88
2024/01/14 02:00:00;;;;;;;6.47;1.97;;;2.40;99.90;;;;;;4757828;30;20196;-88
2024/01/14 02:02:26;;;;;;;5.33;1.50;;;2.30;99.90;;;;;;4750525;30;20196;-88
2024/01/14 02:04:52;;;;;;;3.50;1.20;;;2.30;99.90;;;;;;4755695;30;20210;-90
2024/01/14 02:07:20;;;;;;;5.70;1.10;;;2.20;99.90;;;;;;4772323;30;20196;-89
2024/01/14 02:09:46;;;;;;;5.77;1.50;;;2.20;99.90;;;;;;4751587;30;20203;-89
2024/01/14 02:12:12;;;;;;;6.13;1.03;;;2.20;99.90;;;;;;4757142;30;20234;-89
2024/01/14 02:14:37;;;;;;;5.73;1.00;;;2.20;99.90;;;;;;4773474;30;20225;-89
2024/01/14 02:17:03;;;;;;;6.30;1.07;;;2.20;99.90;;;;;;4773299;30;20753;-89
2024/01/14 02:19:29;;;;;;;5.67;0.90;;;2.20;99.90;;;;;;4757183;30;20729;-89
2024/01/14 02:22:03;;;;;;;2.97;1.10;;;2.10;99.90;;;;;;4754038;30;20582;-89
2024/01/14 02:24:30;;;;;;;3.17;0.83;;;2.10;99.90;;;;;;4747457;30;20192;-88
2024/01/14 02:26:56;;;;;;;7.37;0.90;;;2.10;99.90;;;;;;4754128;30;20246;-88
2024/01/14 02:29:22;;;;;;;1.63;0.67;;;2.10;99.90;;;;;;4754075;30;20223;-88
2024/01/14 02:31:48;;;;;;;1.97;0.83;;;2.00;99.90;;;;;;4753866;30;20621;-89
2024/01/14 02:34:15;;;;;;;1.43;0.87;;;2.00;99.90;;;;;;4751189;30;20255;-88
2024/01/14 02:36:41;;;;;;;2.13;1.10;;;1.90;99.90;;;;;;4748828;30;20331;-88
2024/01/14 02:39:07;;;;;;;5.50;1.30;;;2.00;99.90;;;;;;4754917;30;20307;-88
2024/01/14 02:41:33;;;;;;;2.77;1.00;;;1.90;99.90;;;;;;4736307;30;20197;-89
2024/01/14 02:44:00;;;;;;;4.20;0.83;;;2.00;99.90;;;;;;4742692;30;20207;-89
2024/01/14 02:46:26;;;;;;;3.13;0.87;;;2.00;99.90;;;;;;4738225;30;20185;-89
2024/01/14 02:48:52;;;;;;;3.03;0.80;;;2.10;99.90;;;;;;4748809;30;20283;-88
2024/01/14 02:51:20;;;;;;;2.73;0.90;;;2.00;99.90;;;;;;4754991;30;20212;-88
2024/01/14 02:53:45;;;;;;;2.90;1.00;;;2.00;99.90;;;;;;4753794;30;20195;-88
2024/01/14 02:56:11;;;;;;;3.87;1.00;;;2.00;99.90;;;;;;4753523;30;20200;-89
2024/01/14 02:58:37;;;;;;;1.83;0.73;;;2.00;99.90;;;;;;4753649;30;20630;-89
2024/01/14 03:01:04;;;;;;;4.93;1.00;;;2.00;99.90;;;;;;4753606;30;20655;-89
2024/01/14 03:03:30;;;;;;;3.37;1.13;;;1.90;99.90;;;;;;4751396;30;20644;-88
2024/01/14 03:05:56;;;;;;;2.70;0.90;;;1.90;99.90;;;;;;4768287;30;20189;-88
2024/01/14 03:08:21;;;;;;;2.60;1.10;;;1.80;99.90;;;;;;4753119;30;20193;-89
2024/01/14 03:10:48;;;;;;;2.80;1.20;;;1.90;99.90;;;;;;4749505;30;20189;-88
2024/01/14 03:13:15;;;;;;;1.87;1.10;;;1.90;99.90;;;;;;4751271;30;20193;-88
2024/01/14 03:15:44;;;;;;;2.80;1.17;;;1.90;99.90;;;;;;4753547;30;20199;-90
2024/01/14 03:18:11;;;;;;;1.90;1.33;;;2.00;99.90;;;;;;4753334;30;20257;-88
2024/01/14 03:20:37;;;;;;;3.37;1.60;;;2.00;99.90;;;;;;4760728;30;20239;-89
2024/01/14 03:23:03;;;;;;;5.73;1.50;;;2.00;99.90;;;;;;4756202;30;20192;-89
2024/01/14 03:25:29;;;;;;;3.97;1.47;;;2.00;99.90;;;;;;4772178;30;20207;-89
2024/01/14 03:27:55;;;;;;;3.63;1.40;;;2.00;99.90;;;;;;4756160;30;20541;-88
2024/01/14 03:30:21;;;;;;;3.10;1.60;;;1.90;99.90;;;;;;4771960;30;20180;-89
2024/01/14 03:33:01;;;;;;;3.30;1.90;;;2.00;99.90;;;;;;4756286;30;20191;-89
2024/01/14 03:35:26;;;;;;;5.70;1.70;;;2.00;99.90;;;;;;4754387;30;20192;-89
2024/01/14 03:37:52;;;;;;;3.00;1.83;;;2.10;99.90;;;;;;4756136;30;20770;-90
2024/01/14 03:40:18;;;;;;;3.50;2.10;;;2.00;99.90;;;;;;4756070;30;20223;-89
2024/01/14 03:42:44;;;;;;;3.97;1.87;;;2.00;99.90;;;;;;4771980;30;20184;-90
2024/01/14 03:45:10;;;;;;;3.13;1.83;;;1.90;99.90;;;;;;4756317;30;20188;-89
2024/01/14 03:47:36;;;;;;;2.83;1.87;;;1.90;99.90;;;;;;4771638;30;20191;-89
2024/01/14 03:52:37;;;;;;;5.07;2.20;;;1.90;99.90;;;;;;4928206;24;20244;-82
2024/01/14 03:55:03;;;;;;;5.80;2.60;;;2.00;99.90;;;;;;4806973;29;20213;-82
2024/01/14 03:57:29;;;;;;;3.50;2.30;;;2.00;99.90;;;;;;4806717;29;20242;-83
2024/01/14 03:59:55;;;;;;;3.93;2.13;;;2.00;99.90;;;;;;4783171;29;20339;-83
2024/01/14 04:02:22;;;;;;;4.13;2.40;;;2.10;99.90;;;;;;4791223;29;20250;-83
2024/01/14 04:04:48;;;;;;;4.40;2.67;;;2.10;99.90;;;;;;4791396;29;20213;-84
2024/01/14 04:07:14;;;;;;;5.13;2.77;;;2.10;99.90;;;;;;4806951;29;20194;-83
2024/01/14 04:09:39;;;;;;;7.17;3.37;;;2.10;99.90;;;;;;4807375;29;20202;-83
2024/01/14 04:12:06;;;;;;;7.23;3.17;;;2.10;99.90;;;;;;4806930;29;20195;-82
2024/01/14 04:14:32;;;;;;;7.90;3.73;;;2.30;99.90;;;;;;4791419;29;20198;-82
2024/01/14 04:16:58;;;;;;;5.80;2.90;;;2.40;99.90;;;;;;4791109;29;20238;-83
2024/01/14 04:19:24;;;;;;;5.20;3.20;;;2.50;99.90;;;;;;4784134;29;20210;-83
2024/01/14 04:21:50;;;;;;;5.73;3.57;;;2.60;99.90;;;;;;4790745;29;20194;-83
2024/01/14 04:24:16;;;;;;;7.27;3.30;;;2.60;99.90;;;;;;4794780;29;20233;-83
2024/01/14 04:26:41;;;;;;;4.43;3.03;;;2.60;99.90;;;;;;4794798;29;20259;-82
2024/01/14 04:29:07;;;;;;;7.40;3.10;;;2.80;99.90;;;;;;4794947;29;20197;-84
2024/01/14 04:31:33;;;;;;;6.33;2.83;;;2.80;99.90;;;;;;4794904;29;20231;-84
2024/01/14 04:34:01;;;;;;;7.00;3.23;;;2.90;99.90;;;;;;4794955;29;20198;-83
2024/01/14 04:36:26;;;;;;;5.77;2.80;;;3.00;99.90;;;;;;4810708;29;20198;-84
2024/01/14 04:38:52;;;;;;;9.40;4.00;;;3.00;99.90;;;;;;4794538;29;20547;-85
2024/01/14 04:41:18;;;;;;;6.03;3.20;;;2.90;99.90;;;;;;4794547;29;20195;-83
2024/01/14 04:43:53;;;;;;;5.13;2.80;;;2.90;99.90;;;;;;4790265;29;20203;-84
2024/01/14 04:46:21;;;;;;;5.97;3.30;;;3.00;99.90;;;;;;4792524;29;20647;-83
2024/01/14 04:48:47;;;;;;;7.93;3.40;;;3.00;99.90;;;;;;4794574;29;20293;-83
2024/01/14 04:51:13;;;;;;;5.27;3.20;;;3.00;99.90;;;;;;4790295;29;20408;-82
2024/01/14 04:53:39;;;;;;;8.03;3.50;;;3.00;99.90;;;;;;4794439;29;20331;-82
2024/01/14 04:56:10;;;;;;;7.37;3.63;;;3.00;99.90;;;;;;4794335;29;20203;-84
2024/01/14 04:58:36;;;;;;;11.70;3.80;;;3.00;99.90;;;;;;4794022;29;20226;-82
2024/01/14 05:01:02;;;;;;;7.87;3.00;;;3.00;99.90;;;;;;4786797;29;20219;-82
2024/01/14 05:03:28;;;;;;;6.07;3.10;;;3.00;99.90;;;;;;4786490;29;20199;-82
2024/01/14 05:05:54;;;;;;;6.37;3.13;;;3.00;99.90;;;;;;4793390;29;20520;-82
2024/01/14 05:08:19;;;;;;;9.67;3.20;;;2.90;99.90;;;;;;4794029;29;20198;-82
2024/01/14 05:10:45;;;;;;;8.60;3.23;;;3.00;99.90;;;;;;4793600;29;20199;-81
2024/01/14 05:13:12;;;;;;;12.43;3.43;;;3.10;99.90;;;;;;4786455;29;20293;-81
2024/01/14 05:15:38;;;;;;;8.10;2.93;;;3.10;99.90;;;;;;4794099;29;20194;-82
2024/01/14 05:18:04;;;;;;;9.70;3.37;;;3.10;99.90;;;;;;4793796;29;20249;-82
2024/01/14 05:20:29;;;;;;;6.97;3.43;;;3.00;99.90;;;;;;4810002;29;20228;-81
2024/01/14 05:22:58;;;;;;;7.20;3.03;;;2.90;99.90;;;;;;4784493;30;20201;-82
2024/01/14 05:25:24;;;;;;;9.13;3.03;;;3.00;99.90;;;;;;4778072;29;20188;-83
2024/01/14 05:27:49;;;;;;;10.03;3.10;;;3.00;99.90;;;;;;4793861;29;20281;-83
2024/01/14 05:30:15;;;;;;;7.50;2.63;;;3.00;99.90;;;;;;4793766;29;20233;-83
2024/01/14 05:32:41;;;;;;;6.63;2.80;;;3.10;99.90;;;;;;4792731;29;20201;-82
2024/01/14 05:35:07;;;;;;;7.83;2.83;;;3.00;99.90;;;;;;4793691;29;20695;-82
2024/01/14 05:37:33;;;;;;;8.53;2.40;;;3.00;99.90;;;;;;4785936;29;20223;-82
2024/01/14 05:39:58;;;;;;;8.97;2.47;;;3.10;99.90;;;;;;4793663;29;20642;-83
2024/01/14 05:42:24;;;;;;;7.43;2.80;;;3.10;99.90;;;;;;4786047;29;20642;-82
2024/01/14 05:44:50;;;;;;;10.77;2.93;;;3.10;99.90;;;;;;4791382;29;20514;-83
2024/01/14 05:47:15;;;;;;;11.23;3.10;;;3.00;99.90;;;;;;4793663;29;20202;-82
2024/01/14 05:49:41;;;;;;;7.57;2.33;;;3.10;99.90;;;;;;4793364;29;20198;-82
2024/01/14 05:52:07;;;;;;;5.53;2.77;;;3.00;99.90;;;;;;4789516;29;20242;-82
2024/01/14 05:54:32;;;;;;;11.83;2.97;;;3.00;99.90;;;;;;4793164;29;20194;-82
2024/01/14 05:56:58;;;;;;;17.90;3.37;;;2.90;99.90;;;;;;4801855;29;20209;-83
2024/01/14 05:59:24;;;;;;;12.07;2.60;;;2.80;99.90;;;;;;4801780;29;20198;-83
2024/01/14 06:01:50;;;;;;;7.07;2.50;;;2.80;99.90;;;;;;4792921;29;20195;-83
2024/01/14 06:04:18;;;;;;;12.07;2.80;;;2.80;99.90;;;;;;4778306;29;20201;-82
2024/01/14 06:06:44;;;;;;;9.77;2.73;;;2.90;99.90;;;;;;4788310;30;20199;-83
2024/01/14 06:09:10;;;;;;;8.43;2.73;;;3.00;99.90;;;;;;4790078;29;20217;-82
2024/01/14 06:11:38;;;;;;;9.10;2.93;;;2.90;99.90;;;;;;4792691;29;20218;-83
2024/01/14 06:14:06;;;;;;;12.67;3.33;;;2.80;99.90;;;;;;4809361;29;20213;-84
2024/01/14 06:16:32;;;;;;;6.27;2.57;;;2.80;99.90;;;;;;4792908;29;20206;-83
2024/01/14 06:18:57;;;;;;;12.27;3.40;;;2.70;99.90;;;;;;4808888;29;20219;-83
2024/01/14 06:21:23;;;;;;;7.80;3.13;;;2.70;99.90;;;;;;4785965;29;20693;-84
2024/01/14 06:23:50;;;;;;;7.93;3.13;;;2.70;99.90;;;;;;4792678;29;20678;-82
2024/01/14 06:26:17;;;;;;;16.87;2.87;;;2.70;99.90;;;;;;4792726;29;20553;-82
2024/01/14 06:28:42;;;;;;;7.57;2.77;;;2.80;99.90;;;;;;4808759;29;20256;-82
2024/01/14 06:31:08;;;;;;;7.67;2.20;;;2.90;99.90;;;;;;4808760;29;20593;-82
2024/01/14 06:33:34;;;;;;;8.53;2.60;;;2.90;99.90;;;;;;4777836;29;20243;-82
2024/01/14 06:36:03;;;;;;;7.77;2.40;;;2.90;99.90;;;;;;4792644;29;20635;-82
2024/01/14 06:38:29;;;;;;;11.13;3.07;;;2.90;99.90;;;;;;4792255;29;20267;-82
2024/01/14 06:40:54;;;;;;;8.37;2.70;;;2.90;99.90;;;;;;4792763;29;20214;-84
2024/01/14 06:43:20;;;;;;;14.40;2.70;;;2.90;99.90;;;;;;4808169;29;20194;-82
2024/01/14 06:45:47;;;;;;;6.00;2.17;;;2.90;99.90;;;;;;4792509;29;20698;-82
2024/01/14 06:48:12;;;;;;;15.60;2.73;;;2.90;99.90;;;;;;4791598;29;20203;-82
2024/01/14 06:50:38;;;;;;;12.33;2.40;;;2.80;99.90;;;;;;4785313;29;20202;-83
2024/01/14 06:53:04;;;;;;;11.33;2.70;;;2.90;99.90;;;;;;4804685;29;20203;-82
2024/01/14 06:55:32;;;;;;;12.03;2.13;;;2.80;99.90;;;;;;4792095;29;20304;-83
2024/01/14 06:57:59;;;;;;;10.90;2.23;;;2.80;99.90;;;;;;4785877;30;20227;-83
2024/01/14 07:00:25;;;;;;;7.43;2.30;;;2.80;99.90;;;;;;4790919;29;20194;-82
2024/01/14 07:02:50;;;;;;;6.20;2.67;;;2.70;99.90;;;;;;4791348;29;20290;-82
2024/01/14 07:05:17;;;;;;;11.83;2.60;;;2.70;99.90;;;;;;4791821;29;20255;-82
2024/01/14 07:07:44;;;;;;;3.67;1.90;;;2.70;99.90;;;;;;4807685;29;20690;-82
2024/01/14 07:10:10;;;;;;;9.80;2.10;;;2.70;99.90;;;;;;4791606;29;20195;-83
2024/01/14 07:12:36;;;;;;;9.17;2.47;;;2.80;99.90;;;;;;4792021;29;20661;-82
2024/01/14 07:15:03;;;;;;;7.53;2.57;;;2.70;99.90;;;;;;4792161;29;20206;-83
2024/01/14 07:17:28;;;;;;;15.67;2.53;;;2.70;99.90;;;;;;4789059;29;20229;-83
2024/01/14 07:19:54;;;;;;;13.07;2.37;;;2.70;99.90;;;;;;4773898;30;20188;-82
2024/01/14 07:22:20;;;;;;;10.07;2.30;;;2.60;99.90;;;;;;4781276;29;20195;-81
2024/01/14 07:24:45;;;;;;;7.17;2.30;;;2.70;99.90;;;;;;4778489;29;20226;-83
2024/01/14 07:27:11;;;;;;;12.67;2.67;;;2.70;99.90;;;;;;4791461;29;20198;-81
2024/01/14 07:29:37;;;;;;;16.97;2.63;;;2.60;99.90;;;;;;4791512;29;20214;-82
2024/01/14 07:32:03;;;;;;;7.93;2.23;;;2.60;99.90;;;;;;4791611;29;20492;-83
2024/01/14 07:34:31;;;;;;;14.23;2.57;;;2.60;99.90;;;;;;4807671;29;20627;-82
2024/01/14 07:36:57;;;;;;;9.33;2.23;;;2.70;99.90;;;;;;4791187;29;20202;-83
2024/01/14 07:39:23;;;;;;;12.03;2.37;;;2.70;99.90;;;;;;4791277;29;20314;-82
2024/01/14 07:41:48;;;;;;;14.07;2.87;;;2.60;99.90;;;;;;4786430;29;20192;-83
2024/01/14 07:44:14;;;;;;;11.83;2.50;;;2.60;99.90;;;;;;4788910;29;20530;-82
2024/01/14 07:46:40;;;;;;;10.07;3.37;;;2.60;99.90;;;;;;4784082;29;20220;-83
2024/01/14 07:49:06;;;;;;;11.80;2.87;;;2.60;99.90;;;;;;4791566;29;20195;-86
2024/01/14 07:51:31;;;;;;;12.73;3.17;;;2.50;99.90;;;;;;4787444;29;20242;-83
2024/01/14 07:53:59;;;;;;;10.80;2.50;;;2.50;99.90;;;;;;4806957;29;20227;-82
2024/01/14 07:56:25;;;;;;;9.40;2.40;;;2.60;99.90;;;;;;4797578;29;20248;-82
2024/01/14 07:58:50;;;;;;;9.00;3.00;;;2.50;99.90;;;;;;4801360;29;20223;-80
2024/01/14 08:01:17;;;;;;;11.23;2.83;;;2.60;99.90;;;;;;4803141;29;20242;-82
2024/01/14 08:03:43;;;;;;;8.63;2.50;;;2.60;99.90;;;;;;4783782;29;20595;-83
2024/01/14 08:06:10;;;;;;;14.23;2.47;;;2.60;99.90;;;;;;4784460;29;20317;-82
2024/01/14 08:08:35;;;;;;;11.93;2.70;;;2.60;99.90;;;;;;4783044;30;20547;-84
2024/01/14 08:11:01;;;;;;;11.53;2.60;;;2.60;99.90;;;;;;4802290;29;20199;-85
2024/01/14 08:13:26;;;;;;;16.07;2.53;;;2.60;99.90;;;;;;4788760;29;20644;-84
2024/01/14 08:15:54;;;;;;;9.43;2.70;;;2.60;99.90;;;;;;4791283;29;20211;-83
2024/01/14 08:18:22;;;;;;;12.00;3.13;;;2.60;99.90;;;;;;4790693;29;20275;-83
2024/01/14 08:20:48;;;;;;;14.90;2.57;;;2.60;99.90;;;;;;4776407;29;20206;-82
2024/01/14 08:23:14;;;;;;;10.87;2.83;;;2.70;99.90;;;;;;4789512;29;20191;-84
2024/01/14 08:25:40;;;;;;;12.20;2.27;;;2.60;99.90;;;;;;4770605;30;20639;-83
2024/01/14 08:28:06;;;;;;;12.63;2.40;;;2.70;99.90;;;;;;4789516;29;20252;-83
2024/01/14 08:30:32;;;;;;;11.37;3.00;;;2.70;99.90;;;;;;4781216;29;20198;-84
2024/01/14 08:32:57;;;;;;;15.90;2.27;;;2.80;99.90;;;;;;4771901;29;20638;-81
2024/01/14 08:35:24;;;;;;;7.90;2.00;;;2.70;99.90;;;;;;4791935;29;20626;-83
2024/01/14 08:37:50;;;;;;;13.27;2.43;;;2.70;99.90;;;;;;4773393;30;20222;-84
2024/01/14 08:40:16;;;;;;;12.83;2.57;;;2.70;99.90;;;;;;4772239;29;20191;-84
2024/01/14 08:42:45;;;;;;;8.00;2.03;;;2.80;99.90;;;;;;4797733;29;20235;-83
2024/01/14 08:45:12;;;;;;;10.90;2.13;;;2.80;99.90;;;;;;4790269;29;20217;-83
2024/01/14 08:47:39;;;;;;;11.80;2.37;;;2.80;99.90;;;;;;4776255;30;20199;-83
2024/01/14 08:50:07;;;;;;;12.93;2.50;;;2.70;99.90;;;;;;4774287;30;20207;-83
2024/01/14 08:52:33;;;;;;;11.60;2.23;;;2.90;99.90;;;;;;4790228;29;20273;-81
2024/01/14 08:54:59;;;;;;;11.67;2.53;;;2.80;99.90;;;;;;4781871;29;20639;-84
2024/01/14 08:57:25;;;;;;;10.70;2.30;;;2.80;99.90;;;;;;4772954;29;20651;-82
2024/01/14 08:59:51;;;;;;;9.87;2.73;;;2.80;99.90;;;;;;4779194;29;20198;-83
2024/01/14 09:02:17;;;;;;;7.80;2.10;;;2.80;99.90;;;;;;4781378;29;20191;-85
2024/01/14 09:04:42;;;;;;;8.00;2.10;;;2.90;99.90;;;;;;4793366;29;20215;-84
2024/01/14 09:07:08;;;;;;;5.90;2.00;;;2.90;99.90;;;;;;4789891;29;20194;-84
2024/01/14 09:09:34;;;;;;;16.23;3.50;;;2.90;99.90;;;;;;4803049;29;20186;-85
2024/01/14 09:12:00;;;;;;;11.10;2.77;;;2.90;99.90;;;;;;4810015;29;20187;-84
2024/01/14 09:14:25;;;;;;;13.10;2.97;;;2.90;99.90;;;;;;4801216;29;20187;-84
2024/01/14 09:16:53;;;;;;;12.93;2.70;;;2.90;99.90;;;;;;4789003;29;20218;-84
2024/01/14 09:19:19;;;;;;;12.17;1.97;;;2.90;99.90;;;;;;4776778;29;20226;-84
2024/01/14 09:21:44;;;;;;;11.60;2.73;;;2.80;99.90;;;;;;4787174;29;20536;-83
2024/01/14 09:24:10;;;;;;;9.57;2.30;;;2.90;99.90;;;;;;4794004;29;20260;-84
2024/01/14 09:26:36;;;;;;;14.90;2.10;;;2.90;99.90;;;;;;4794286;29;20203;-83
2024/01/14 09:29:02;;;;;;;8.23;1.87;;;2.90;99.90;;;;;;4775298;29;20207;-83
2024/01/14 09:31:28;;;;;;;14.53;2.80;;;3.10;99.90;;;;;;4783006;29;20191;-83
2024/01/14 09:33:53;;;;;;;10.93;3.13;;;3.10;99.90;;;;;;4783226;30;20187;-84
2024/01/14 09:36:19;;;;;;;9.20;2.20;;;3.20;99.90;;;;;;4783314;29;20651;-83
2024/01/14 09:38:45;;;;;;;10.57;2.10;;;3.20;99.90;;;;;;4782870;30;20215;-83
2024/01/14 09:41:39;;;;;;;11.07;2.20;;;3.20;99.90;;;;;;4782525;29;20195;-83
2024/01/14 09:44:07;;;;;;;14.27;2.23;;;3.20;99.90;;;;;;4779286;30;20222;-83
2024/01/14 09:46:39;;;;;;;10.20;2.53;;;3.20;99.90;;;;;;4779784;29;20200;-82
2024/01/14 09:49:05;;;;;;;10.27;2.90;;;3.20;99.90;;;;;;4776003;29;20383;-82
2024/01/14 09:51:33;;;;;;;7.80;1.70;;;3.20;99.90;;;;;;4785955;29;20325;-83
2024/01/14 09:54:01;;;;;;;12.67;2.67;;;3.20;99.90;;;;;;4794175;29;20199;-82
2024/01/14 09:56:31;;;;;;;14.33;2.13;;;3.20;99.90;;;;;;4781943;29;20281;-83
2024/01/14 09:58:58;;;;;;;11.80;2.73;;;3.20;99.90;;;;;;4782906;30;20255;-83
2024/01/14 10:01:30;;;;;;;12.27;2.50;;;3.20;99.90;;;;;;4779386;29;20198;-83
2024/01/14 10:04:02;;;;;;;16.67;3.13;;;3.30;99.90;;;;;;4781946;29;20229;-84
2024/01/14 10:06:30;;;;;;;15.30;3.10;;;3.20;99.90;;;;;;4778125;29;20218;-83
2024/01/14 10:08:57;;;;;;;11.80;3.23;;;3.30;99.90;;;;;;4789558;29;20191;-83
2024/01/14 10:11:23;;;;;;;12.30;2.63;;;3.30;99.90;;;;;;4783577;29;20305;-83
2024/01/14 10:13:49;;;;;;;12.67;3.00;;;3.30;99.90;;;;;;4793263;29;20267;-83
2024/01/14 10:16:16;;;;;;;12.33;3.37;;;3.20;99.90;;;;;;4785300;29;20215;-82
2024/01/14 10:18:42;;;;;;;12.40;3.23;;;3.20;99.90;;;;;;4778164;30;20227;-83
2024/01/14 10:21:09;;;;;;;13.47;3.57;;;3.20;99.90;;;;;;4790763;29;20275;-84
2024/01/14 10:26:25;;;;;;;17.67;5.83;;;3.10;99.90;;;;;;4794183;29;20231;-82
2024/01/14 10:28:51;;;;;;;16.70;5.27;;;3.20;99.90;;;;;;4792861;29;20598;-84
2024/01/14 10:31:17;;;;;;;13.50;5.20;;;3.20;99.90;;;;;;4779230;29;20239;-82
2024/01/14 10:33:45;;;;;;;12.10;4.77;;;3.20;99.90;;;;;;4798569;29;20187;-82
2024/01/14 10:36:10;;;;;;;12.93;5.33;;;3.30;99.90;;;;;;4783007;29;20195;-82
2024/01/14 10:38:37;;;;;;;13.23;4.40;;;3.20;99.90;;;;;;4789324;29;20238;-82
2024/01/14 10:41:03;;;;;;;18.30;4.37;;;3.20;99.90;;;;;;4790074;29;20274;-81
2024/01/14 10:43:29;;;;;;;15.23;4.40;;;3.30;99.90;;;;;;4788855;29;20200;-83
2024/01/14 10:45:57;;;;;;;16.00;4.63;;;3.30;99.90;;;;;;4783000;30;20190;-82
2024/01/14 10:48:27;;;;;;;18.60;4.80;;;3.30;99.90;;;;;;4778138;29;20191;-83
2024/01/14 10:51:01;;;;;;;17.53;4.47;;;3.30;99.90;;;;;;4783994;29;20237;-83
2024/01/14 10:54:09;;;;;;;13.70;4.50;;;3.40;99.90;;;;;;4798486;29;20275;-84
2024/01/14 10:56:40;;;;;;;15.23;4.83;;;3.50;99.90;;;;;;4780538;29;20192;-82
2024/01/14 10:59:11;;;;;;;14.17;4.03;;;3.50;99.90;;;;;;4771784;29;20675;-81
2024/01/14 11:01:44;;;;;;;9.87;3.97;;;3.50;99.90;;;;;;4786769;29;20187;-83
2024/01/14 11:04:10;;;;;;;10.77;4.23;;;3.40;99.90;;;;;;4790939;29;20187;-83
2024/01/14 11:06:37;;;;;;;13.80;4.17;;;3.50;99.90;;;;;;4790977;29;20286;-83
2024/01/14 11:09:03;;;;;;;9.03;4.13;;;3.40;99.90;;;;;;4791256;29;20206;-82
2024/01/14 11:11:38;;;;;;;9.67;4.57;;;3.40;99.90;;;;;;4784807;29;20188;-83
2024/01/14 11:14:34;;;;;;;11.30;4.67;;;3.50;99.90;;;;;;4777259;30;20658;-83
2024/01/14 11:17:43;;;;;;;9.90;4.43;;;3.50;99.90;;;;;;4781894;29;20581;-84
2024/01/14 11:20:14;;;;;;;10.47;4.93;;;3.50;99.90;;;;;;4682597;30;20229;-83
2024/01/14 11:22:40;;;;;;;11.30;4.70;;;3.40;99.90;;;;;;4783501;29;20183;-83
2024/01/14 11:25:13;;;;;;;7.30;4.13;;;3.40;99.90;;;;;;4779597;30;20188;-83
2024/01/14 11:27:45;;;;;;;10.33;4.37;;;3.40;99.90;;;;;;4781592;29;20658;-83
2024/01/14 11:30:16;;;;;;;12.20;4.83;;;3.30;99.90;;;;;;4780866;29;20191;-83
2024/01/14 11:32:42;;;;;;;11.50;4.50;;;3.30;99.90;;;;;;4781653;30;20195;-83
2024/01/14 11:35:09;;;;;;;11.73;4.67;;;3.40;99.90;;;;;;4792782;29;20194;-82
2024/01/14 11:37:45;;;;;;;12.47;5.10;;;3.50;99.90;;;;;;4786276;29;20218;-83
2024/01/14 11:40:18;;;;;;;9.10;4.90;;;3.50;99.90;;;;;;4780719;29;20199;-82
2024/01/14 11:42:52;;;;;;;10.00;4.23;;;3.50;99.90;;;;;;4787191;29;20190;-82
2024/01/14 11:45:24;;;;;;;11.07;4.13;;;3.40;99.90;;;;;;4782815;29;20577;-83
2024/01/14 11:47:55;;;;;;;8.53;4.33;;;3.40;99.90;;;;;;4789962;29;20183;-83
2024/01/14 11:50:21;;;;;;;9.87;4.83;;;3.40;99.90;;;;;;4791892;29;20547;-83
2024/01/14 11:52:51;;;;;;;10.00;5.53;;;3.40;99.90;;;;;;4779406;29;20271;-84
2024/01/14 11:55:18;;;;;;;10.93;5.70;;;3.30;99.90;;;;;;4780418;29;20220;-85
2024/01/14 11:57:45;;;;;;;10.23;5.60;;;3.30;99.90;;;;;;4784409;29;20234;-83
2024/01/14 12:00:12;;;;;;;12.37;6.30;;;3.30;99.90;;;;;;4776941;29;20282;-83
2024/01/14 12:02:38;;;;;;;11.77;5.97;;;3.30;99.90;;;;;;4789252;29;20667;-83
2024/01/14 12:05:19;;;;;;;12.10;6.30;;;3.40;99.90;;;;;;4777847;29;20502;-85
2024/01/14 12:07:46;;;;;;;11.27;6.30;;;3.30;99.90;;;;;;4778749;30;20191;-84
2024/01/14 12:10:18;;;;;;;13.20;6.73;;;3.30;99.90;;;;;;4780789;29;20194;-83
2024/01/14 12:12:44;;;;;;;11.77;6.40;;;3.30;99.90;;;;;;4791222;29;20327;-85
2024/01/14 12:15:10;;;;;;;17.37;6.93;;;3.30;99.90;;;;;;4807271;29;20194;-82
2024/01/14 12:17:36;;;;;;;16.20;7.17;;;3.20;99.90;;;;;;4791329;29;20666;-84
2024/01/14 12:20:08;;;;;;;12.30;6.43;;;3.20;99.90;;;;;;4807376;29;20281;-82
2024/01/14 12:22:36;;;;;;;10.97;6.67;;;3.20;99.90;;;;;;4778787;29;20229;-85
2024/01/14 12:25:03;;;;;;;11.77;6.40;;;3.10;99.90;;;;;;4800211;29;20194;-87
2024/01/14 12:27:30;;;;;;;10.00;5.90;;;3.10;99.90;;;;;;4785129;29;20509;-85
2024/01/14 12:29:58;;;;;;;8.97;5.70;;;2.90;99.90;;;;;;4781260;29;20190;-85
2024/01/14 12:32:23;;;;;;;11.13;5.77;;;3.00;99.90;;;;;;4791410;29;20184;-89
2024/01/14 12:34:57;;;;;;;8.27;5.37;;;2.90;99.90;;;;;;4801397;29;20190;-88
2024/01/14 12:37:23;;;;;;;8.13;5.03;;;2.80;99.90;;;;;;4806776;29;20218;-84
2024/01/14 12:39:49;;;;;;;9.97;6.00;;;2.80;99.90;;;;;;4790848;29;20255;-85
2024/01/14 12:42:15;;;;;;;10.53;5.97;;;2.80;99.90;;;;;;4793293;29;20190;-85
2024/01/14 12:44:46;;;;;;;12.10;6.30;;;2.70;99.90;;;;;;4810815;29;20190;-86
2024/01/14 12:47:12;;;;;;;11.87;6.57;;;2.70;99.90;;;;;;4787261;29;20541;-85
2024/01/14 12:49:43;;;;;;;9.13;6.10;;;2.70;99.90;;;;;;4810932;29;20187;-85
2024/01/14 12:52:09;;;;;;;10.47;6.40;;;2.70;99.90;;;;;;4787637;29;20234;-90
2024/01/14 12:54:35;;;;;;;13.23;7.70;;;2.70;99.90;;;;;;4791553;30;20239;-85